Time;durP1;ratioP1;P1;durP2;ratioP2;P2;SDS_P1;SDS_P2;PMS_P1;PMS_P2;Temp;Humidity;BMP_temperature;BMP_pressure;BME280_temperature;BME280_humidity;BME280_pressure;Samples;Min_cycle;Max_cycle;Signal;HPM_P1;HPM_P2
2021/12/04 00:01:51;;;;;;;5.95;5.35;;;;;;;;;;5012253;28;20084;-59
2021/12/04 00:04:29;;;;;;;7.68;6.45;;;;;;;;;;5011029;28;20046;-59
2021/12/04 00:06:56;;;;;;;8.48;7.05;;;;;;;;;;5010331;28;20066;-58
2021/12/04 00:09:23;;;;;;;8.63;7.72;;;;;;;;;;5011587;28;20045;-59
2021/12/04 00:12:01;;;;;;;8.05;6.07;;;;;;;;;;5012180;28;20039;-59
2021/12/04 00:14:29;;;;;;;7.28;6.57;;;;;;;;;;5009922;28;20121;-59
2021/12/04 00:16:57;;;;;;;9.88;7.38;;;;;;;;;;5013923;28;20037;-59
2021/12/04 00:19:25;;;;;;;7.45;5.88;;;;;;;;;;5014073;28;20463;-59
2021/12/04 00:21:52;;;;;;;7.22;6.05;;;;;;;;;;5012465;28;20057;-59
2021/12/04 00:24:19;;;;;;;8.52;7.00;;;;;;;;;;5012008;28;20050;-58
2021/12/04 00:26:47;;;;;;;6.75;5.18;;;;;;;;;;5013473;28;20044;-58
2021/12/04 00:29:14;;;;;;;7.60;5.65;;;;;;;;;;5010860;28;20125;-58
2021/12/04 00:31:53;;;;;;;7.72;6.95;;;;;;;;;;5011138;28;20052;-59
2021/12/04 00:34:23;;;;;;;7.47;6.70;;;;;;;;;;5010316;28;20122;-59
2021/12/04 00:50:30;;;;;;;9.10;8.00;;;;;;;;;;5010807;28;20057;-58
2021/12/04 00:52:57;;;;;;;9.20;6.53;;;;;;;;;;5008982;28;20045;-59
2021/12/04 00:55:24;;;;;;;8.80;8.00;;;;;;;;;;5010203;28;20053;-59
2021/12/04 00:57:52;;;;;;;9.00;8.10;;;;;;;;;;5012658;28;20069;-61
2021/12/04 01:00:20;;;;;;;10.18;8.27;;;;;;;;;;5009655;28;20046;-60
2021/12/04 01:02:47;;;;;;;12.07;9.45;;;;;;;;;;5005167;28;20038;-59
2021/12/04 01:05:14;;;;;;;13.50;10.60;;;;;;;;;;5012942;28;20057;-59
2021/12/04 01:07:41;;;;;;;10.40;9.32;;;;;;;;;;5012385;28;20042;-59
2021/12/04 01:10:09;;;;;;;8.45;7.55;;;;;;;;;;5012957;28;20064;-59
2021/12/04 01:12:36;;;;;;;8.32;7.43;;;;;;;;;;5010919;28;20038;-60
2021/12/04 01:15:05;;;;;;;9.80;7.63;;;;;;;;;;5011812;28;20412;-59
2021/12/04 01:17:32;;;;;;;10.90;8.07;;;;;;;;;;5012547;28;20049;-59
2021/12/04 01:19:59;;;;;;;10.07;9.02;;;;;;;;;;5011922;28;20049;-60
2021/12/04 01:22:26;;;;;;;12.05;10.00;;;;;;;;;;5008386;28;20038;-59
2021/12/04 01:24:54;;;;;;;11.50;10.30;;;;;;;;;;5010540;28;20496;-59
2021/12/04 01:27:23;;;;;;;12.05;10.57;;;;;;;;;;5011989;28;20120;-60
2021/12/04 01:29:50;;;;;;;13.35;11.20;;;;;;;;;;5012271;28;20400;-59
2021/12/04 01:32:17;;;;;;;12.60;9.80;;;;;;;;;;5009225;28;20038;-60
2021/12/04 01:34:44;;;;;;;13.27;11.10;;;;;;;;;;5011082;28;20046;-59
2021/12/04 01:37:11;;;;;;;12.95;10.45;;;;;;;;;;5011490;28;20201;-59
2021/12/04 01:39:38;;;;;;;10.40;8.88;;;;;;;;;;5011882;28;20054;-61
2021/12/04 01:42:05;;;;;;;11.65;9.10;;;;;;;;;;5012376;28;20034;-58
2021/12/04 01:44:32;;;;;;;10.32;7.88;;;;;;;;;;5008897;28;20041;-58
2021/12/04 01:46:59;;;;;;;11.10;7.50;;;;;;;;;;5010466;28;20069;-58
2021/12/04 01:49:26;;;;;;;9.23;7.55;;;;;;;;;;5011509;28;20058;-58
2021/12/04 01:51:53;;;;;;;11.25;8.10;;;;;;;;;;5009587;28;20072;-59
2021/12/04 01:54:21;;;;;;;9.50;7.78;;;;;;;;;;5009661;28;20042;-58
2021/12/04 01:56:48;;;;;;;9.40;8.40;;;;;;;;;;5014390;28;20424;-58
2021/12/04 01:59:15;;;;;;;10.48;8.68;;;;;;;;;;5013900;28;20042;-58
2021/12/04 02:01:42;;;;;;;12.40;10.73;;;;;;;;;;5014738;28;20049;-58
2021/12/04 02:04:09;;;;;;;12.73;11.10;;;;;;;;;;5014465;28;20038;-58
2021/12/04 02:06:38;;;;;;;12.25;10.95;;;;;;;;;;5014269;28;20093;-58
2021/12/04 02:09:05;;;;;;;28.70;22.42;;;;;;;;;;5014371;28;20565;-58
2021/12/04 02:11:32;;;;;;;29.38;25.17;;;;;;;;;;5014538;28;20042;-58
2021/12/04 02:13:58;;;;;;;35.40;31.00;;;;;;;;;;5014645;28;20504;-57
2021/12/04 02:16:25;;;;;;;42.05;37.85;;;;;;;;;;5013870;28;20038;-59
2021/12/04 02:18:52;;;;;;;26.83;24.35;;;;;;;;;;5013150;28;20566;-59
2021/12/04 02:21:19;;;;;;;17.38;15.57;;;;;;;;;;5013746;28;20049;-58
2021/12/04 02:23:46;;;;;;;14.55;12.90;;;;;;;;;;5014008;28;20054;-59
2021/12/04 02:26:13;;;;;;;19.20;14.32;;;;;;;;;;5014070;28;20046;-58
2021/12/04 02:28:46;;;;;;;16.88;14.63;;;;;;;;;;5013672;28;20046;-59
2021/12/04 02:31:16;;;;;;;15.43;13.60;;;;;;;;;;5013718;28;20042;-59
2021/12/04 02:33:43;;;;;;;15.90;13.73;;;;;;;;;;5014106;28;20077;-59
2021/12/04 02:36:10;;;;;;;15.75;14.23;;;;;;;;;;5014093;28;20045;-58
2021/12/04 02:38:37;;;;;;;17.52;14.00;;;;;;;;;;5013780;28;20034;-58
2021/12/04 02:41:05;;;;;;;16.17;13.50;;;;;;;;;;5013855;28;20096;-59
2021/12/04 02:43:34;;;;;;;14.60;12.80;;;;;;;;;;5013509;28;20128;-59
2021/12/04 02:46:02;;;;;;;15.77;14.13;;;;;;;;;;5014056;28;20056;-58
2021/12/04 02:48:29;;;;;;;17.13;14.98;;;;;;;;;;5013392;28;20048;-59
2021/12/04 02:50:56;;;;;;;19.35;16.08;;;;;;;;;;5013933;28;20456;-59
2021/12/04 02:53:23;;;;;;;14.43;12.75;;;;;;;;;;5013362;28;20400;-58
2021/12/04 02:55:52;;;;;;;13.88;12.38;;;;;;;;;;5013839;28;20054;-59
2021/12/04 02:58:20;;;;;;;14.48;12.88;;;;;;;;;;5013218;28;20042;-59
2021/12/04 03:00:50;;;;;;;14.20;12.55;;;;;;;;;;5013404;28;20053;-59
2021/12/04 03:03:19;;;;;;;13.80;11.95;;;;;;;;;;5013443;28;20049;-58
2021/12/04 03:05:50;;;;;;;12.85;10.98;;;;;;;;;;5013282;28;20046;-59
2021/12/04 03:08:21;;;;;;;12.77;10.85;;;;;;;;;;5013540;28;20125;-59
2021/12/04 03:10:48;;;;;;;15.60;11.40;;;;;;;;;;5013157;28;20041;-59
2021/12/04 03:13:17;;;;;;;11.65;10.45;;;;;;;;;;5013521;28;20120;-58
2021/12/04 03:15:47;;;;;;;13.10;10.77;;;;;;;;;;5012806;28;20041;-59
2021/12/04 03:18:14;;;;;;;11.73;10.43;;;;;;;;;;5013111;28;20060;-58
2021/12/04 03:20:44;;;;;;;12.80;10.70;;;;;;;;;;5012716;28;20116;-59
2021/12/04 03:23:19;;;;;;;12.05;10.45;;;;;;;;;;5013156;28;20054;-58
2021/12/04 03:25:49;;;;;;;13.40;11.48;;;;;;;;;;5013139;28;20104;-59
2021/12/04 03:28:18;;;;;;;11.82;10.23;;;;;;;;;;5012918;28;20145;-59
2021/12/04 03:41:57;;;;;;;11.20;9.48;;;;;;;;;;5012687;28;20052;-58
2021/12/04 03:44:24;;;;;;;18.15;10.75;;;;;;;;;;5012870;28;20455;-59
2021/12/04 03:46:51;;;;;;;11.93;10.15;;;;;;;;;;5012872;28;20057;-58
2021/12/04 03:49:18;;;;;;;11.48;9.23;;;;;;;;;;5012709;28;20105;-59
2021/12/04 03:51:45;;;;;;;11.10;9.80;;;;;;;;;;5012781;28;20489;-58
2021/12/04 03:54:12;;;;;;;11.63;9.45;;;;;;;;;;5012449;28;20488;-59
2021/12/04 03:56:39;;;;;;;10.35;9.15;;;;;;;;;;5012844;28;20515;-58
2021/12/04 03:59:06;;;;;;;11.43;8.65;;;;;;;;;;5012502;28;20404;-58
2021/12/04 04:01:33;;;;;;;10.45;8.30;;;;;;;;;;5011496;28;20428;-58
2021/12/04 04:04:00;;;;;;;11.50;8.65;;;;;;;;;;5012342;28;20045;-58
2021/12/04 04:06:27;;;;;;;11.18;9.35;;;;;;;;;;5012463;28;20042;-58
2021/12/04 04:08:54;;;;;;;11.45;9.57;;;;;;;;;;5012184;28;20046;-58
2021/12/04 04:11:21;;;;;;;9.65;8.65;;;;;;;;;;5012905;28;20046;-58
2021/12/04 04:13:48;;;;;;;8.68;7.30;;;;;;;;;;5012685;28;20046;-58
2021/12/04 04:16:15;;;;;;;8.32;6.80;;;;;;;;;;5012760;28;20053;-59
2021/12/04 04:18:42;;;;;;;11.35;8.23;;;;;;;;;;5012794;28;20500;-58
2021/12/04 04:21:09;;;;;;;9.68;8.15;;;;;;;;;;5012145;28;20377;-58
2021/12/04 04:23:36;;;;;;;11.52;9.27;;;;;;;;;;5012894;28;20385;-58
2021/12/04 04:26:03;;;;;;;12.98;10.27;;;;;;;;;;5012287;28;20053;-57
2021/12/04 04:28:30;;;;;;;11.10;9.98;;;;;;;;;;5012555;28;20046;-58
2021/12/04 04:30:56;;;;;;;10.30;9.30;;;;;;;;;;5012149;28;20517;-58
2021/12/04 04:33:23;;;;;;;10.65;8.85;;;;;;;;;;5012605;28;20042;-57
2021/12/04 04:36:06;;;;;;;9.77;8.13;;;;;;;;;;5012124;28;20053;-58
2021/12/04 04:38:43;;;;;;;19.25;9.43;;;;;;;;;;5007631;28;20428;-57
2021/12/04 05:13:18;;;;;;;8.15;6.90;;;;;;;;;;5015884;28;20056;-57
2021/12/04 05:15:57;;;;;;;8.85;6.88;;;;;;;;;;5015133;28;20089;-57
2021/12/04 05:21:04;;;;;;;7.40;6.38;;;;;;;;;;5014826;28;20042;-57
2021/12/04 05:23:54;;;;;;;11.82;7.30;;;;;;;;;;5015508;28;20046;-57
2021/12/04 05:26:27;;;;;;;11.48;7.25;;;;;;;;;;5014748;28;20042;-57
2021/12/04 05:29:00;;;;;;;7.00;6.00;;;;;;;;;;5015191;28;20065;-58
2021/12/04 05:31:28;;;;;;;7.10;6.10;;;;;;;;;;5014468;28;20053;-58
2021/12/04 05:33:55;;;;;;;7.07;6.20;;;;;;;;;;5015058;28;20056;-59
2021/12/04 05:36:24;;;;;;;8.07;6.80;;;;;;;;;;5014618;28;20045;-58
2021/12/04 05:38:52;;;;;;;10.38;7.68;;;;;;;;;;5015032;28;20073;-58
2021/12/04 05:41:19;;;;;;;9.00;6.97;;;;;;;;;;5014531;28;20050;-58
2021/12/04 05:43:47;;;;;;;7.07;5.97;;;;;;;;;;5015268;28;20045;-57
2021/12/04 05:46:16;;;;;;;5.25;4.75;;;;;;;;;;5014779;28;20053;-57
2021/12/04 05:48:55;;;;;;;6.20;5.10;;;;;;;;;;5014788;28;20045;-57
2021/12/04 05:51:36;;;;;;;3.88;3.58;;;;;;;;;;5014832;28;20420;-57
2021/12/04 05:54:19;;;;;;;4.95;4.32;;;;;;;;;;5014346;28;20527;-57
2021/12/04 05:56:47;;;;;;;7.55;4.57;;;;;;;;;;5014989;28;20046;-56
2021/12/04 05:59:13;;;;;;;4.00;3.60;;;;;;;;;;5014221;28;20084;-58
2021/12/04 06:01:40;;;;;;;3.85;3.55;;;;;;;;;;5014466;28;20092;-58
2021/12/04 06:04:07;;;;;;;3.88;3.58;;;;;;;;;;5014257;28;20400;-56
2021/12/04 06:06:34;;;;;;;6.70;4.45;;;;;;;;;;5014586;28;20129;-57
2021/12/04 06:09:04;;;;;;;4.93;4.43;;;;;;;;;;5013877;28;20046;-59
2021/12/04 06:11:31;;;;;;;4.85;4.32;;;;;;;;;;5014573;28;20046;-57
2021/12/04 06:13:58;;;;;;;5.50;4.88;;;;;;;;;;5014045;28;20042;-57
2021/12/04 06:16:25;;;;;;;5.32;4.82;;;;;;;;;;5014486;28;20455;-58
2021/12/04 06:18:53;;;;;;;5.90;4.53;;;;;;;;;;5013326;28;20042;-56
2021/12/04 06:24:07;;;;;;;5.32;4.43;;;;;;;;;;5013049;28;20040;-52
2021/12/04 06:26:35;;;;;;;6.13;5.47;;;;;;;;;;5012018;28;20045;-58
2021/12/04 06:29:03;;;;;;;5.95;5.18;;;;;;;;;;5013795;28;20054;-56
2021/12/04 06:31:31;;;;;;;9.70;6.70;;;;;;;;;;5013333;28;20088;-57
2021/12/04 06:33:58;;;;;;;10.82;8.80;;;;;;;;;;5013015;28;20045;-55
2021/12/04 06:36:25;;;;;;;10.18;8.48;;;;;;;;;;5012147;28;20045;-57
2021/12/04 06:38:53;;;;;;;9.07;6.63;;;;;;;;;;5011636;28;20046;-57
2021/12/04 06:41:20;;;;;;;5.57;4.97;;;;;;;;;;5011833;28;20045;-56
2021/12/04 06:43:51;;;;;;;4.60;3.78;;;;;;;;;;5012139;28;20069;-57
2021/12/04 06:46:20;;;;;;;7.60;5.97;;;;;;;;;;5010122;28;20913;-56
2021/12/04 06:49:03;;;;;;;10.85;7.32;;;;;;;;;;5006400;28;20053;-56
2021/12/04 06:56:56;;;;;;;10.35;6.97;;;;;;;;;;4973808;28;20473;-58
2021/12/04 06:59:27;;;;;;;6.38;5.72;;;;;;;;;;5008029;28;20056;-59
2021/12/04 07:01:54;;;;;;;5.20;4.50;;;;;;;;;;5008232;28;20057;-60
2021/12/04 07:04:28;;;;;;;7.05;6.22;;;;;;;;;;5009689;28;20401;-59
2021/12/04 07:06:58;;;;;;;5.50;4.72;;;;;;;;;;5010864;28;20046;-59
2021/12/04 07:09:25;;;;;;;7.15;6.38;;;;;;;;;;5006113;28;20046;-58
2021/12/04 07:11:52;;;;;;;7.68;6.90;;;;;;;;;;5008871;28;20049;-59
2021/12/04 07:14:19;;;;;;;9.65;8.15;;;;;;;;;;5009915;28;20092;-59
2021/12/04 07:16:47;;;;;;;11.07;9.88;;;;;;;;;;5008500;28;20057;-58
2021/12/04 07:19:14;;;;;;;10.68;9.60;;;;;;;;;;5009946;28;20049;-59
2021/12/04 07:21:41;;;;;;;13.75;11.95;;;;;;;;;;5009772;28;20378;-58
2021/12/04 07:24:10;;;;;;;21.88;13.73;;;;;;;;;;5009146;28;20465;-58
2021/12/04 07:26:37;;;;;;;20.23;13.18;;;;;;;;;;5010082;28;20080;-58
2021/12/04 07:29:04;;;;;;;16.13;10.88;;;;;;;;;;5007768;28;20396;-58
2021/12/04 07:31:31;;;;;;;20.63;14.10;;;;;;;;;;5009263;28;20050;-58
2021/12/04 07:33:59;;;;;;;22.25;14.60;;;;;;;;;;5007803;28;20065;-59
2021/12/04 07:36:26;;;;;;;19.55;14.70;;;;;;;;;;5009010;28;20046;-59
2021/12/04 07:38:53;;;;;;;23.20;13.63;;;;;;;;;;5009048;28;20045;-59
2021/12/04 07:41:21;;;;;;;22.75;13.07;;;;;;;;;;5010937;28;20373;-59
2021/12/04 07:43:48;;;;;;;20.05;14.95;;;;;;;;;;5009542;28;20042;-58
2021/12/04 07:46:15;;;;;;;20.58;14.30;;;;;;;;;;5006191;28;20042;-60
2021/12/04 07:48:42;;;;;;;18.58;14.38;;;;;;;;;;5005644;28;20489;-58
2021/12/04 07:51:09;;;;;;;16.98;12.38;;;;;;;;;;5010362;28;20447;-58
2021/12/04 07:53:36;;;;;;;17.20;15.45;;;;;;;;;;5005100;28;20045;-57
2021/12/04 07:56:03;;;;;;;42.92;38.50;;;;;;;;;;5006618;28;20046;-57
2021/12/04 07:58:30;;;;;;;19.10;17.05;;;;;;;;;;5005436;28;20456;-56
2021/12/04 08:00:57;;;;;;;19.05;17.05;;;;;;;;;;5006670;28;20077;-56
2021/12/04 08:03:24;;;;;;;20.98;16.23;;;;;;;;;;5007674;28;20038;-56
2021/12/04 08:05:52;;;;;;;20.73;15.63;;;;;;;;;;5005595;28;20049;-57
2021/12/04 08:08:19;;;;;;;16.70;14.52;;;;;;;;;;5006101;28;20045;-57
2021/12/04 08:10:46;;;;;;;15.68;12.70;;;;;;;;;;5006114;28;20056;-56
2021/12/04 08:13:13;;;;;;;20.00;13.95;;;;;;;;;;5007808;28;20405;-56
2021/12/04 08:15:40;;;;;;;20.55;15.13;;;;;;;;;;5005675;28;20045;-57
2021/12/04 08:18:13;;;;;;;16.50;12.80;;;;;;;;;;5008162;28;20046;-59
2021/12/04 08:20:39;;;;;;;16.77;12.13;;;;;;;;;;5008672;28;20034;-59
2021/12/04 08:23:07;;;;;;;21.25;13.48;;;;;;;;;;5011850;28;20046;-58
2021/12/04 08:25:36;;;;;;;19.20;13.35;;;;;;;;;;5008769;28;20049;-58
2021/12/04 08:28:04;;;;;;;17.58;13.57;;;;;;;;;;5010065;28;20416;-58
2021/12/04 08:30:34;;;;;;;37.35;14.55;;;;;;;;;;5008934;28;20128;-58
2021/12/04 08:33:01;;;;;;;17.45;13.13;;;;;;;;;;5009347;28;20100;-58
2021/12/04 08:35:31;;;;;;;21.70;14.68;;;;;;;;;;5012471;28;20412;-57
2021/12/04 08:37:58;;;;;;;22.73;14.95;;;;;;;;;;5007527;28;20038;-51
2021/12/04 08:40:27;;;;;;;20.42;13.55;;;;;;;;;;5008152;28;20492;-57
2021/12/04 08:42:54;;;;;;;17.52;12.25;;;;;;;;;;5009697;28;20057;-54
2021/12/04 08:45:21;;;;;;;26.75;16.75;;;;;;;;;;5011568;28;20124;-56
2021/12/04 08:47:49;;;;;;;18.05;14.85;;;;;;;;;;5009133;28;20068;-58
2021/12/04 08:50:19;;;;;;;29.95;14.45;;;;;;;;;;5007802;28;20591;-59
2021/12/04 08:52:46;;;;;;;16.90;14.50;;;;;;;;;;5007622;28;20045;-57
2021/12/04 08:55:14;;;;;;;20.80;14.55;;;;;;;;;;5010088;28;20504;-54
2021/12/04 08:57:42;;;;;;;18.88;12.27;;;;;;;;;;5009528;28;20046;-51
2021/12/04 09:00:16;;;;;;;16.30;11.40;;;;;;;;;;5008640;28;20030;-56
2021/12/04 09:02:44;;;;;;;14.13;11.57;;;;;;;;;;5010508;28;20050;-55
2021/12/04 09:05:11;;;;;;;13.60;12.25;;;;;;;;;;5010934;28;20061;-58
2021/12/04 09:07:39;;;;;;;12.20;10.95;;;;;;;;;;5013077;28;20089;-55
2021/12/04 09:10:06;;;;;;;14.45;11.57;;;;;;;;;;5009564;28;20117;-59
2021/12/04 09:12:38;;;;;;;11.13;9.73;;;;;;;;;;5012364;28;20046;-57
2021/12/04 09:15:09;;;;;;;10.25;8.60;;;;;;;;;;5012154;28;20053;-57
2021/12/04 09:17:36;;;;;;;11.88;9.05;;;;;;;;;;5012744;28;20049;-55
2021/12/04 09:20:04;;;;;;;9.95;8.18;;;;;;;;;;5009976;28;20546;-56
2021/12/04 09:22:34;;;;;;;10.15;9.07;;;;;;;;;;5010969;28;20042;-58
2021/12/04 09:25:15;;;;;;;9.35;8.23;;;;;;;;;;5012182;28;20116;-57
2021/12/04 09:31:06;;;;;;;9.15;8.15;;;;;;;;;;5007578;28;20053;-62
2021/12/04 09:33:59;;;;;;;11.32;8.80;;;;;;;;;;5011382;28;20049;-62
2021/12/04 09:36:45;;;;;;;12.77;8.65;;;;;;;;;;5012592;28;20064;-65
2021/12/04 10:01:41;;;;;;;13.02;11.68;;;;;;;;;;5005380;28;20045;-65
2021/12/04 10:34:32;;;;;;;12.25;9.90;;;;;;;;;;5009119;28;20061;-64
2021/12/04 10:37:07;;;;;;;11.60;9.13;;;;;;;;;;5007012;28;20084;-64
2021/12/04 10:39:35;;;;;;;10.02;9.02;;;;;;;;;;5006259;28;20049;-64
2021/12/04 10:42:07;;;;;;;12.23;8.23;;;;;;;;;;5008548;28;20057;-64
2021/12/04 10:44:39;;;;;;;12.65;10.50;;;;;;;;;;5006383;28;20120;-64
2021/12/04 10:47:11;;;;;;;13.57;8.73;;;;;;;;;;5008504;28;20042;-64
2021/12/04 10:50:04;;;;;;;9.88;8.82;;;;;;;;;;5004236;28;20038;-64
2021/12/04 10:55:12;;;;;;;10.77;9.23;;;;;;;;;;5009699;28;20046;-61
2021/12/04 11:22:34;;;;;;;11.75;10.52;;;;;;;;;;5000702;28;20046;-62
2021/12/04 11:44:08;;;;;;;10.75;9.65;;;;;;;;;;4999496;28;20488;-62
2021/12/04 11:46:44;;;;;;;11.65;9.65;;;;;;;;;;5005767;28;20148;-62
2021/12/04 11:49:11;;;;;;;14.55;10.85;;;;;;;;;;5009548;28;20053;-63
2021/12/04 11:51:59;;;;;;;11.18;9.00;;;;;;;;;;5013119;28;20046;-63
2021/12/04 11:54:30;;;;;;;12.07;9.80;;;;;;;;;;5013216;28;20076;-63
2021/12/04 11:57:07;;;;;;;12.52;10.20;;;;;;;;;;5017162;28;20046;-62
2021/12/04 11:59:36;;;;;;;10.95;9.70;;;;;;;;;;5015758;28;20116;-64
2021/12/04 12:02:06;;;;;;;12.63;10.00;;;;;;;;;;5012912;28;20524;-61
2021/12/04 12:04:38;;;;;;;16.77;9.90;;;;;;;;;;5010870;28;20054;-63
2021/12/04 12:07:14;;;;;;;14.35;9.75;;;;;;;;;;5016903;28;20424;-62
2021/12/04 12:09:41;;;;;;;13.00;10.75;;;;;;;;;;5015539;28;20053;-62
2021/12/04 12:12:12;;;;;;;14.60;12.75;;;;;;;;;;5013864;28;20125;-64
2021/12/04 12:14:55;;;;;;;14.60;12.25;;;;;;;;;;5013169;28;20416;-61
2021/12/04 12:17:32;;;;;;;13.05;11.75;;;;;;;;;;5000740;28;20062;-61
2021/12/04 12:19:59;;;;;;;11.43;10.20;;;;;;;;;;5003303;28;20057;-62
2021/12/04 12:22:42;;;;;;;10.75;9.23;;;;;;;;;;5001932;28;20956;-62
2021/12/04 12:25:20;;;;;;;13.52;8.98;;;;;;;;;;5000155;28;20054;-62
2021/12/04 12:36:09;;;;;;;11.90;10.35;;;;;;;;;;5009262;28;20916;-62
2021/12/04 12:38:39;;;;;;;12.40;11.10;;;;;;;;;;5013574;28;20400;-62
2021/12/04 12:41:09;;;;;;;14.88;11.90;;;;;;;;;;5017629;28;20069;-63
2021/12/04 12:44:09;;;;;;;13.00;11.45;;;;;;;;;;5017550;28;20038;-65
2021/12/04 12:46:47;;;;;;;16.60;10.75;;;;;;;;;;5017423;28;20899;-61
2021/12/04 12:49:18;;;;;;;19.08;11.85;;;;;;;;;;5017735;28;20045;-61
2021/12/04 12:52:02;;;;;;;13.80;11.15;;;;;;;;;;5018203;28;20042;-61
2021/12/04 12:54:36;;;;;;;16.33;13.70;;;;;;;;;;5014874;28;20044;-61
2021/12/04 12:57:19;;;;;;;14.23;11.18;;;;;;;;;;5018360;28;20041;-60
2021/12/04 13:14:08;;;;;;;12.85;11.40;;;;;;;;;;5015273;28;20506;-61
2021/12/04 13:16:35;;;;;;;14.00;11.50;;;;;;;;;;5014882;28;20050;-61
2021/12/04 13:19:07;;;;;;;15.40;12.45;;;;;;;;;;5015065;28;20088;-62
2021/12/04 13:21:38;;;;;;;12.75;11.40;;;;;;;;;;5014602;28;20042;-62
2021/12/04 13:24:06;;;;;;;18.90;13.18;;;;;;;;;;5015020;28;20068;-61
2021/12/04 13:26:37;;;;;;;13.68;10.50;;;;;;;;;;5014971;28;20045;-61
2021/12/04 13:29:06;;;;;;;12.70;11.00;;;;;;;;;;5013897;28;20073;-60
2021/12/04 13:31:37;;;;;;;14.15;12.05;;;;;;;;;;5010165;28;20038;-61
2021/12/04 13:34:06;;;;;;;16.08;11.85;;;;;;;;;;5010461;28;20492;-61
2021/12/04 13:36:38;;;;;;;15.38;13.77;;;;;;;;;;5012597;28;20050;-61
2021/12/04 13:39:11;;;;;;;15.55;13.60;;;;;;;;;;5011012;28;20108;-59
2021/12/04 13:41:40;;;;;;;16.77;12.57;;;;;;;;;;5006916;28;20129;-62
2021/12/04 13:44:09;;;;;;;17.30;13.93;;;;;;;;;;5012312;28;20034;-61
2021/12/04 13:46:46;;;;;;;16.40;13.40;;;;;;;;;;5010207;28;20041;-61
2021/12/04 13:49:31;;;;;;;18.38;13.45;;;;;;;;;;5010930;28;20042;-61
2021/12/04 13:52:04;;;;;;;19.65;13.18;;;;;;;;;;5011494;28;20105;-60
2021/12/04 13:54:33;;;;;;;20.70;16.33;;;;;;;;;;4994680;28;20097;-61
2021/12/04 13:57:00;;;;;;;15.80;14.07;;;;;;;;;;5010573;28;20049;-61
2021/12/04 13:59:27;;;;;;;16.77;14.30;;;;;;;;;;5011276;28;20038;-61
2021/12/04 14:01:55;;;;;;;17.52;14.35;;;;;;;;;;5010370;28;20089;-59
2021/12/04 14:04:22;;;;;;;26.67;16.33;;;;;;;;;;5010118;28;20096;-60
2021/12/04 14:06:58;;;;;;;19.95;15.38;;;;;;;;;;5011117;28;20049;-60
2021/12/04 14:09:36;;;;;;;17.92;14.68;;;;;;;;;;5011386;28;20042;-59
2021/12/04 14:12:06;;;;;;;20.38;17.42;;;;;;;;;;5006052;28;20049;-61
2021/12/04 14:14:34;;;;;;;17.80;14.73;;;;;;;;;;5008442;28;20053;-61
2021/12/04 14:17:10;;;;;;;21.55;14.70;;;;;;;;;;5008862;28;20034;-61
2021/12/04 14:19:38;;;;;;;17.55;15.15;;;;;;;;;;5010059;28;20037;-61
2021/12/04 14:22:08;;;;;;;19.80;17.70;;;;;;;;;;5008721;28;20053;-61
2021/12/04 14:24:43;;;;;;;25.92;16.90;;;;;;;;;;5009520;28;20052;-61
2021/12/04 14:27:22;;;;;;;20.48;16.58;;;;;;;;;;5011391;28;20037;-60
2021/12/04 14:29:52;;;;;;;19.38;14.82;;;;;;;;;;5011209;28;20057;-61
2021/12/04 14:32:28;;;;;;;23.42;20.70;;;;;;;;;;5002398;28;20421;-61
2021/12/04 14:35:09;;;;;;;23.58;20.08;;;;;;;;;;5004185;28;20057;-61
2021/12/04 14:37:41;;;;;;;21.70;17.90;;;;;;;;;;5007046;28;20050;-60
2021/12/04 14:40:11;;;;;;;21.13;15.68;;;;;;;;;;5007601;28;20042;-60
2021/12/04 14:42:39;;;;;;;18.95;16.85;;;;;;;;;;5008699;28;20038;-59
2021/12/04 14:45:13;;;;;;;22.30;17.25;;;;;;;;;;5008649;28;20041;-60
2021/12/04 14:47:49;;;;;;;23.35;17.73;;;;;;;;;;5007672;28;20053;-59
2021/12/04 14:50:19;;;;;;;21.30;18.13;;;;;;;;;;4992285;28;20041;-62
2021/12/04 14:53:06;;;;;;;19.50;16.73;;;;;;;;;;5008171;28;20065;-62
2021/12/04 14:55:35;;;;;;;19.75;17.67;;;;;;;;;;5008360;28;20057;-62
2021/12/04 14:58:07;;;;;;;20.20;18.05;;;;;;;;;;5007534;28;20041;-60
2021/12/04 15:01:17;;;;;;;19.15;16.92;;;;;;;;;;5008223;28;20042;-59
2021/12/04 15:03:55;;;;;;;27.27;19.52;;;;;;;;;;4967105;28;20502;-61
2021/12/04 15:06:23;;;;;;;21.55;19.30;;;;;;;;;;4969725;28;20047;-61
2021/12/04 15:08:53;;;;;;;23.83;20.25;;;;;;;;;;4991529;28;20077;-59
2021/12/04 15:11:22;;;;;;;24.92;20.05;;;;;;;;;;5011280;28;20045;-59
2021/12/04 15:13:57;;;;;;;23.95;20.25;;;;;;;;;;5008316;28;20052;-60
2021/12/04 15:16:39;;;;;;;27.38;20.50;;;;;;;;;;5006939;28;20080;-62
2021/12/04 15:19:18;;;;;;;26.58;19.90;;;;;;;;;;5007573;28;20144;-60
2021/12/04 15:22:01;;;;;;;27.88;19.75;;;;;;;;;;5009580;28;20050;-59
2021/12/04 15:24:35;;;;;;;24.23;19.58;;;;;;;;;;5009159;28;20045;-60
2021/12/04 15:27:06;;;;;;;24.65;21.50;;;;;;;;;;5007039;28;20577;-63
2021/12/04 15:29:36;;;;;;;31.27;20.13;;;;;;;;;;5009784;28;20050;-60
2021/12/04 15:32:09;;;;;;;24.83;20.00;;;;;;;;;;5009710;28;20053;-62
2021/12/04 15:34:47;;;;;;;25.65;21.60;;;;;;;;;;5008319;28;20069;-62
2021/12/04 15:37:51;;;;;;;30.48;23.38;;;;;;;;;;5006989;28;20049;-61
2021/12/04 15:40:35;;;;;;;28.00;20.67;;;;;;;;;;5006945;28;20041;-61
2021/12/04 15:43:13;;;;;;;24.55;20.90;;;;;;;;;;5009098;28;20046;-62
2021/12/04 15:46:16;;;;;;;23.90;21.20;;;;;;;;;;5008357;28;20034;-62
2021/12/04 15:54:36;;;;;;;23.77;19.92;;;;;;;;;;5010219;28;20046;-60
2021/12/04 15:57:23;;;;;;;31.92;21.95;;;;;;;;;;5010183;28;20088;-60
2021/12/04 15:59:53;;;;;;;26.02;22.17;;;;;;;;;;5011074;28;20045;-59
2021/12/04 16:02:29;;;;;;;27.05;21.90;;;;;;;;;;5011705;28;20041;-61
2021/12/04 16:05:18;;;;;;;27.95;20.80;;;;;;;;;;5010490;28;20069;-59
2021/12/04 16:08:03;;;;;;;26.15;20.63;;;;;;;;;;5010718;28;20097;-59
2021/12/04 16:10:30;;;;;;;27.33;22.00;;;;;;;;;;5011472;28;20057;-59
2021/12/04 16:12:57;;;;;;;24.13;19.33;;;;;;;;;;5012399;28;20108;-61
2021/12/04 16:15:26;;;;;;;25.70;22.05;;;;;;;;;;5012484;28;20049;-61
2021/12/04 16:17:53;;;;;;;25.73;21.25;;;;;;;;;;5011854;28;20042;-61
2021/12/04 16:20:22;;;;;;;24.38;20.67;;;;;;;;;;5012346;28;20049;-61
2021/12/04 16:22:51;;;;;;;27.65;22.60;;;;;;;;;;5011869;28;20508;-61
2021/12/04 16:25:24;;;;;;;28.15;22.08;;;;;;;;;;5012182;28;20061;-61
2021/12/04 16:31:31;;;;;;;29.17;24.35;;;;;;;;;;5012438;28;20485;-61
2021/12/04 16:33:39;;;;;;;31.73;28.25;;;;;;;;;;5007764;28;20095;-61
2021/12/04 16:36:19;;;;;;;28.50;23.75;;;;;;;;;;5012329;28;20500;-60
2021/12/04 16:39:10;;;;;;;32.83;24.92;;;;;;;;;;5015291;28;20041;-62
2021/12/04 16:41:39;;;;;;;25.73;21.65;;;;;;;;;;5016009;28;20052;-60
2021/12/04 16:44:07;;;;;;;30.83;24.50;;;;;;;;;;4998721;28;20046;-59
2021/12/04 16:46:38;;;;;;;26.65;22.00;;;;;;;;;;5016235;28;20488;-62
2021/12/04 16:49:07;;;;;;;31.42;24.08;;;;;;;;;;5016092;28;20125;-61
2021/12/04 16:59:24;;;;;;;29.13;24.25;;;;;;;;;;5016135;28;20133;-63
2021/12/04 17:01:54;;;;;;;33.28;25.75;;;;;;;;;;5015626;28;20046;-60
2021/12/04 17:04:24;;;;;;;33.08;25.45;;;;;;;;;;5015925;28;20054;-59
2021/12/04 17:06:54;;;;;;;32.75;25.95;;;;;;;;;;5015650;28;20056;-60
2021/12/04 17:09:23;;;;;;;34.30;25.65;;;;;;;;;;5015930;28;20049;-59
2021/12/04 17:11:54;;;;;;;35.78;26.45;;;;;;;;;;5015241;28;20504;-60
2021/12/04 17:14:22;;;;;;;32.78;26.30;;;;;;;;;;5015589;28;20401;-60
2021/12/04 17:16:50;;;;;;;40.35;26.95;;;;;;;;;;5015374;28;20077;-61
2021/12/04 17:19:19;;;;;;;33.78;25.42;;;;;;;;;;5015604;28;20112;-60
2021/12/04 17:21:48;;;;;;;35.45;28.42;;;;;;;;;;5015728;28;20050;-60
2021/12/04 17:24:17;;;;;;;38.72;26.75;;;;;;;;;;5014980;28;20137;-60
2021/12/04 17:26:45;;;;;;;31.48;26.33;;;;;;;;;;5015447;28;20053;-60
2021/12/04 17:29:13;;;;;;;32.33;25.75;;;;;;;;;;5014804;28;20050;-60
2021/12/04 17:31:42;;;;;;;43.25;31.20;;;;;;;;;;5015456;28;20041;-60
2021/12/04 17:34:10;;;;;;;32.50;26.10;;;;;;;;;;5015260;28;20065;-60
2021/12/04 17:36:37;;;;;;;32.10;26.52;;;;;;;;;;5015216;28;20576;-60
2021/12/04 17:39:07;;;;;;;30.13;26.27;;;;;;;;;;5014697;28;20497;-60
2021/12/04 17:41:35;;;;;;;55.67;39.13;;;;;;;;;;5014974;28;20077;-60
2021/12/04 17:44:05;;;;;;;39.85;31.25;;;;;;;;;;5014652;28;20536;-60
2021/12/04 17:46:33;;;;;;;41.03;33.78;;;;;;;;;;5015034;28;20041;-60
2021/12/04 17:49:00;;;;;;;41.72;33.65;;;;;;;;;;5014732;28;20076;-59
2021/12/04 17:51:28;;;;;;;34.17;28.55;;;;;;;;;;5014932;28;20053;-60
2021/12/04 17:53:58;;;;;;;36.78;30.77;;;;;;;;;;5014699;28;20046;-60
2021/12/04 17:56:25;;;;;;;40.65;33.20;;;;;;;;;;5014633;28;20049;-60
2021/12/04 17:58:53;;;;;;;54.65;39.38;;;;;;;;;;5015089;28;20385;-60
2021/12/04 18:01:36;;;;;;;41.75;33.42;;;;;;;;;;5014686;28;20042;-60
2021/12/04 18:04:06;;;;;;;40.90;29.92;;;;;;;;;;5014906;28;20061;-60
2021/12/04 18:06:33;;;;;;;38.03;31.00;;;;;;;;;;5014363;28;20048;-60
2021/12/04 18:09:03;;;;;;;42.63;33.35;;;;;;;;;;5014388;28;20405;-60
2021/12/04 18:11:34;;;;;;;44.42;35.28;;;;;;;;;;5014104;28;20177;-60
2021/12/04 18:14:05;;;;;;;51.58;39.13;;;;;;;;;;5014320;28;20046;-60